Time;durP1;ratioP1;P1;durP2;ratioP2;P2;SDS_P1;SDS_P2;PMS_P1;PMS_P2;Temp;Humidity;BMP_temperature;BMP_pressure;BME280_temperature;BME280_humidity;BME280_pressure;Samples;Min_cycle;Max_cycle;Signal;HPM_P1;HPM_P2
2023/10/10 00:02:04;;;;;;;9.90;6.15;;;;;;;;;;5011955;28;20448;-57
2023/10/10 00:04:33;;;;;;;12.65;6.93;;;;;;;;;;5020186;28;20395;-57
2023/10/10 00:06:58;;;;;;;9.70;6.60;;;;;;;;;;5015438;28;20403;-57
2023/10/10 00:09:26;;;;;;;10.97;6.80;;;;;;;;;;5012464;28;20740;-57
2023/10/10 00:11:53;;;;;;;14.57;7.82;;;;;;;;;;5021439;28;20418;-57
2023/10/10 00:14:19;;;;;;;12.88;7.00;;;;;;;;;;5016434;28;20407;-57
2023/10/10 00:16:47;;;;;;;10.45;6.43;;;;;;;;;;5018736;28;20411;-57
2023/10/10 00:19:29;;;;;;;10.85;6.50;;;;;;;;;;5021074;28;20407;-57
2023/10/10 00:21:55;;;;;;;10.63;6.80;;;;;;;;;;5019075;28;20462;-57
2023/10/10 00:24:23;;;;;;;11.18;7.03;;;;;;;;;;5014769;28;20391;-57
2023/10/10 00:26:49;;;;;;;14.07;8.00;;;;;;;;;;5013094;28;21080;-57
2023/10/10 00:29:14;;;;;;;12.80;8.00;;;;;;;;;;5011806;28;20904;-57
2023/10/10 00:31:43;;;;;;;13.57;8.20;;;;;;;;;;5014584;28;20401;-57
2023/10/10 00:34:09;;;;;;;12.50;7.10;;;;;;;;;;5012973;28;20395;-57
2023/10/10 00:36:35;;;;;;;13.15;7.50;;;;;;;;;;5023384;28;20470;-57
2023/10/10 00:41:51;;;;;;;11.68;6.93;;;;;;;;;;5018006;28;20491;-57
2023/10/10 00:44:17;;;;;;;10.90;7.00;;;;;;;;;;5015848;28;20962;-57
2023/10/10 00:46:44;;;;;;;11.57;6.88;;;;;;;;;;5024716;28;20407;-57
2023/10/10 00:49:13;;;;;;;11.63;7.05;;;;;;;;;;5015324;28;20467;-57
2023/10/10 00:51:39;;;;;;;12.02;7.35;;;;;;;;;;5016078;28;20905;-57
2023/10/10 00:54:25;;;;;;;11.55;7.22;;;;;;;;;;5024305;28;20470;-56
2023/10/10 00:56:57;;;;;;;12.77;7.75;;;;;;;;;;5015714;28;20414;-57
2023/10/10 00:59:34;;;;;;;11.98;7.05;;;;;;;;;;5021135;28;20409;-57
2023/10/10 01:02:02;;;;;;;15.65;8.05;;;;;;;;;;5019918;28;20423;-57
2023/10/10 01:04:35;;;;;;;11.20;7.80;;;;;;;;;;5023277;28;20815;-57
2023/10/10 01:07:03;;;;;;;13.67;8.20;;;;;;;;;;5025031;28;20429;-57
2023/10/10 01:09:35;;;;;;;11.40;7.50;;;;;;;;;;5033162;28;20415;-57
2023/10/10 01:12:04;;;;;;;10.98;7.07;;;;;;;;;;5029070;28;20434;-57
2023/10/10 01:14:30;;;;;;;10.35;6.90;;;;;;;;;;5028659;28;20435;-57
2023/10/10 01:17:05;;;;;;;12.95;7.53;;;;;;;;;;5016052;28;20412;-57
2023/10/10 01:19:31;;;;;;;12.63;7.88;;;;;;;;;;5015830;28;20407;-57
2023/10/10 01:21:57;;;;;;;13.32;7.85;;;;;;;;;;5014069;28;20928;-57
2023/10/10 01:24:24;;;;;;;11.52;8.30;;;;;;;;;;5022965;28;20460;-57
2023/10/10 01:26:52;;;;;;;14.65;8.35;;;;;;;;;;5017758;28;20444;-57
2023/10/10 01:31:51;;;;;;;13.90;7.97;;;;;;;;;;5023943;28;20397;-58
2023/10/10 01:34:31;;;;;;;13.63;8.23;;;;;;;;;;5015628;28;20412;-58
2023/10/10 01:36:58;;;;;;;13.30;7.85;;;;;;;;;;5016703;28;20499;-57
2023/10/10 01:39:27;;;;;;;12.88;7.57;;;;;;;;;;5023037;28;20711;-58
2023/10/10 01:41:54;;;;;;;12.55;7.90;;;;;;;;;;5014604;28;20417;-57
2023/10/10 01:44:22;;;;;;;15.20;8.45;;;;;;;;;;5016202;28;20413;-58
2023/10/10 01:46:47;;;;;;;14.25;8.27;;;;;;;;;;5015732;28;20481;-58
2023/10/10 01:49:19;;;;;;;12.47;7.83;;;;;;;;;;5023234;28;20886;-57
2023/10/10 01:51:45;;;;;;;12.35;8.07;;;;;;;;;;5021245;28;20497;-57
2023/10/10 01:54:18;;;;;;;11.83;8.10;;;;;;;;;;5016792;28;20452;-57
2023/10/10 01:56:44;;;;;;;14.30;9.10;;;;;;;;;;5023836;28;20929;-57
2023/10/10 01:59:13;;;;;;;14.73;8.97;;;;;;;;;;5023145;28;20430;-57
2023/10/10 02:01:39;;;;;;;15.77;11.25;;;;;;;;;;5016004;28;20503;-57
2023/10/10 02:04:06;;;;;;;15.77;10.70;;;;;;;;;;5015138;28;20506;-57
2023/10/10 02:06:34;;;;;;;18.95;11.15;;;;;;;;;;5023152;28;20802;-57
2023/10/10 02:09:11;;;;;;;17.13;10.60;;;;;;;;;;5012660;28;20911;-57
2023/10/10 02:11:38;;;;;;;14.23;10.60;;;;;;;;;;5003478;28;20461;-57
2023/10/10 02:14:11;;;;;;;15.07;9.27;;;;;;;;;;5002818;28;20413;-57
2023/10/10 02:16:40;;;;;;;16.35;10.38;;;;;;;;;;5003265;28;20424;-57
2023/10/10 02:19:15;;;;;;;15.40;10.13;;;;;;;;;;5003200;28;20419;-57
2023/10/10 02:21:48;;;;;;;16.60;9.45;;;;;;;;;;5005895;28;21538;-57
2023/10/10 02:24:40;;;;;;;14.55;8.82;;;;;;;;;;4999949;28;20990;-57
2023/10/10 02:27:06;;;;;;;16.55;9.50;;;;;;;;;;5000372;28;20763;-57
2023/10/10 02:32:08;;;;;;;13.52;9.57;;;;;;;;;;4999999;28;20511;-57
2023/10/10 02:34:35;;;;;;;13.90;9.25;;;;;;;;;;5002451;28;20944;-57
2023/10/10 02:37:30;;;;;;;16.83;10.70;;;;;;;;;;5002156;28;20903;-57
2023/10/10 02:40:06;;;;;;;16.15;11.20;;;;;;;;;;5003761;28;20411;-57
2023/10/10 02:42:33;;;;;;;18.08;12.10;;;;;;;;;;5003977;28;20430;-57
2023/10/10 02:44:59;;;;;;;14.93;11.38;;;;;;;;;;5009667;28;20451;-57
2023/10/10 02:47:30;;;;;;;16.30;12.07;;;;;;;;;;4998689;28;20404;-57
2023/10/10 02:50:00;;;;;;;17.98;11.73;;;;;;;;;;4994237;28;20454;-57
2023/10/10 02:52:26;;;;;;;20.03;12.63;;;;;;;;;;5000511;28;20427;-57
2023/10/10 02:54:57;;;;;;;19.42;13.27;;;;;;;;;;4999455;28;20405;-56
2023/10/10 02:59:50;;;;;;;18.90;13.00;;;;;;;;;;5002688;28;20417;-57
2023/10/10 03:02:19;;;;;;;19.90;13.63;;;;;;;;;;5002439;28;20418;-57
2023/10/10 03:07:28;;;;;;;21.70;15.45;;;;;;;;;;5002579;28;20416;-57
2023/10/10 03:12:37;;;;;;;19.60;13.95;;;;;;;;;;4994269;28;20400;-56
2023/10/10 03:15:14;;;;;;;21.23;13.82;;;;;;;;;;4994612;28;20416;-57
2023/10/10 03:17:52;;;;;;;23.48;15.70;;;;;;;;;;4999387;28;20544;-57
2023/10/10 03:25:46;;;;;;;25.15;16.58;;;;;;;;;;5001899;28;20420;-57
2023/10/10 03:28:19;;;;;;;29.10;18.97;;;;;;;;;;5002985;28;20443;-57
2023/10/10 03:30:51;;;;;;;20.73;15.63;;;;;;;;;;5005151;28;20886;-57
2023/10/10 03:33:29;;;;;;;22.30;15.90;;;;;;;;;;4994844;28;20459;-58
2023/10/10 05:25:06;;;;;;;87.20;28.25;;;;;;;;;;5001518;28;20423;-57
2023/10/10 05:27:32;;;;;;;38.13;26.42;;;;;;;;;;5004158;28;20413;-58
2023/10/10 05:29:59;;;;;;;33.80;24.50;;;;;;;;;;4996434;28;20875;-58
2023/10/10 05:32:27;;;;;;;84.50;29.92;;;;;;;;;;4999208;28;20732;-58
2023/10/10 05:34:52;;;;;;;43.53;28.38;;;;;;;;;;5007913;28;20407;-58
2023/10/10 05:37:17;;;;;;;48.20;27.53;;;;;;;;;;5003893;28;20430;-58
2023/10/10 05:39:46;;;;;;;34.17;25.80;;;;;;;;;;5003576;28;20428;-58
2023/10/10 05:42:13;;;;;;;50.90;30.13;;;;;;;;;;5003620;28;20486;-58
2023/10/10 05:44:38;;;;;;;39.30;23.33;;;;;;;;;;5004846;28;20444;-58
2023/10/10 05:47:06;;;;;;;77.90;28.80;;;;;;;;;;5002422;28;20407;-58
2023/10/10 05:49:32;;;;;;;38.00;25.23;;;;;;;;;;4996776;28;20459;-58
2023/10/10 05:51:58;;;;;;;69.87;34.47;;;;;;;;;;5000928;28;20405;-58
2023/10/10 05:54:23;;;;;;;50.70;29.25;;;;;;;;;;4995200;28;20408;-58
2023/10/10 05:56:49;;;;;;;61.97;30.33;;;;;;;;;;5003992;28;20405;-59
2023/10/10 05:59:14;;;;;;;68.10;31.20;;;;;;;;;;5003082;28;20409;-58
2023/10/10 06:01:39;;;;;;;70.47;32.95;;;;;;;;;;5003748;28;20429;-58
2023/10/10 06:04:07;;;;;;;67.37;30.20;;;;;;;;;;5002916;28;20404;-58
2023/10/10 06:06:32;;;;;;;47.60;29.42;;;;;;;;;;5002078;28;20482;-58
2023/10/10 06:09:00;;;;;;;43.90;24.97;;;;;;;;;;5011653;28;20501;-58
2023/10/10 06:11:26;;;;;;;48.30;25.25;;;;;;;;;;4997162;28;20393;-58
2023/10/10 06:13:51;;;;;;;39.37;26.13;;;;;;;;;;4989825;28;20494;-58
2023/10/10 06:16:16;;;;;;;71.23;31.47;;;;;;;;;;4994748;28;20978;-58
2023/10/10 06:18:42;;;;;;;39.53;25.80;;;;;;;;;;5005649;28;20415;-58
2023/10/10 06:21:07;;;;;;;41.15;26.58;;;;;;;;;;5002765;28;20424;-58
2023/10/10 06:23:34;;;;;;;41.93;28.17;;;;;;;;;;5002701;28;20874;-59
2023/10/10 06:25:59;;;;;;;42.65;28.52;;;;;;;;;;4997443;28;20412;-58
2023/10/10 06:28:26;;;;;;;53.93;32.37;;;;;;;;;;4997987;28;20407;-58
2023/10/10 06:30:53;;;;;;;52.80;32.67;;;;;;;;;;5001660;28;20409;-58
2023/10/10 06:33:19;;;;;;;94.05;43.60;;;;;;;;;;4995620;28;20411;-58
2023/10/10 06:35:52;;;;;;;58.58;36.05;;;;;;;;;;4993091;28;20553;-58
2023/10/10 06:38:23;;;;;;;55.63;35.10;;;;;;;;;;4994869;28;20412;-58
2023/10/10 06:40:55;;;;;;;60.53;36.37;;;;;;;;;;5000256;28;20411;-58
2023/10/10 06:43:20;;;;;;;66.97;39.88;;;;;;;;;;5002545;28;20403;-57
2023/10/10 06:45:54;;;;;;;83.37;44.37;;;;;;;;;;5002956;28;20401;-58
2023/10/10 06:48:21;;;;;;;65.53;40.28;;;;;;;;;;5003316;28;20903;-58
2023/10/10 06:50:49;;;;;;;81.18;45.97;;;;;;;;;;5002158;28;20445;-58
2023/10/10 06:53:28;;;;;;;67.72;40.90;;;;;;;;;;5002323;28;20405;-58
2023/10/10 06:55:54;;;;;;;65.38;41.28;;;;;;;;;;4998014;28;20404;-58
2023/10/10 06:58:19;;;;;;;57.00;38.27;;;;;;;;;;4995374;28;20924;-58
2023/10/10 07:00:45;;;;;;;52.40;36.37;;;;;;;;;;4998191;28;20415;-58
2023/10/10 07:03:18;;;;;;;60.72;40.88;;;;;;;;;;5014659;28;20434;-58
2023/10/10 07:05:43;;;;;;;64.03;40.83;;;;;;;;;;5013286;28;20409;-58
2023/10/10 07:08:26;;;;;;;53.17;37.67;;;;;;;;;;5015520;28;20410;-58
2023/10/10 07:10:53;;;;;;;71.47;45.00;;;;;;;;;;5015005;28;20404;-58
2023/10/10 07:13:19;;;;;;;54.60;38.60;;;;;;;;;;5013631;28;20911;-58
2023/10/10 07:15:51;;;;;;;61.90;41.15;;;;;;;;;;5016638;28;20422;-58
2023/10/10 07:18:22;;;;;;;61.65;42.60;;;;;;;;;;5015770;28;20415;-58
2023/10/10 07:21:04;;;;;;;65.25;43.90;;;;;;;;;;5013655;28;20858;-58
2023/10/10 07:23:37;;;;;;;53.92;37.70;;;;;;;;;;5021856;28;20719;-58
2023/10/10 07:26:05;;;;;;;54.75;38.83;;;;;;;;;;5014288;28;20409;-58
2023/10/10 07:28:36;;;;;;;60.25;41.70;;;;;;;;;;5013966;28;20436;-58
2023/10/10 07:31:01;;;;;;;48.88;35.47;;;;;;;;;;5013662;28;20518;-58
2023/10/10 07:33:40;;;;;;;56.27;40.23;;;;;;;;;;5021842;28;20402;-58
2023/10/10 07:36:05;;;;;;;48.60;35.20;;;;;;;;;;5014763;28;20974;-58
2023/10/10 07:38:35;;;;;;;48.90;34.65;;;;;;;;;;5014035;28;20479;-58
2023/10/10 07:41:00;;;;;;;51.63;36.40;;;;;;;;;;5021096;28;20396;-58
2023/10/10 07:43:27;;;;;;;50.28;35.03;;;;;;;;;;5017828;28;20510;-58
2023/10/10 07:45:54;;;;;;;47.33;35.35;;;;;;;;;;5015306;28;20485;-58
2023/10/10 07:51:06;;;;;;;45.15;33.13;;;;;;;;;;5021373;28;20407;-58
2023/10/10 07:53:34;;;;;;;44.00;32.10;;;;;;;;;;5017950;28;20402;-58
2023/10/10 07:56:01;;;;;;;40.40;30.45;;;;;;;;;;5015229;28;20492;-58
2023/10/10 07:58:42;;;;;;;41.15;30.85;;;;;;;;;;5012415;28;20739;-58
2023/10/10 08:01:08;;;;;;;39.67;29.63;;;;;;;;;;5012213;28;20405;-58
2023/10/10 08:03:34;;;;;;;37.95;29.80;;;;;;;;;;5016809;28;20462;-59
2023/10/10 08:05:59;;;;;;;36.83;27.73;;;;;;;;;;5013186;28;20468;-58
2023/10/10 08:08:26;;;;;;;34.43;25.97;;;;;;;;;;5020386;28;20405;-58
2023/10/10 08:10:51;;;;;;;35.05;25.85;;;;;;;;;;5013095;28;20514;-58
2023/10/10 08:13:16;;;;;;;33.63;25.23;;;;;;;;;;5011684;28;20978;-58
2023/10/10 08:15:51;;;;;;;30.63;23.43;;;;;;;;;;5020217;28;21005;-58
2023/10/10 08:18:41;;;;;;;29.27;23.25;;;;;;;;;;5019805;28;20434;-58
2023/10/10 08:23:30;;;;;;;28.55;21.90;;;;;;;;;;5016975;28;20396;-58
2023/10/10 08:25:56;;;;;;;28.07;21.07;;;;;;;;;;5017869;28;20416;-58
2023/10/10 08:28:22;;;;;;;26.35;20.60;;;;;;;;;;5023275;28;20522;-59
2023/10/10 08:30:48;;;;;;;25.73;19.50;;;;;;;;;;5025817;28;20856;-58
2023/10/10 08:33:14;;;;;;;23.75;18.27;;;;;;;;;;5025740;28;20404;-58
2023/10/10 08:35:39;;;;;;;26.93;18.30;;;;;;;;;;5028346;28;20418;-58
2023/10/10 08:38:05;;;;;;;26.60;18.93;;;;;;;;;;5028469;28;20957;-58
2023/10/10 08:40:33;;;;;;;24.63;17.60;;;;;;;;;;5029104;28;20762;-58
2023/10/10 08:42:59;;;;;;;19.85;14.90;;;;;;;;;;5028566;28;20414;-58
2023/10/10 08:45:24;;;;;;;19.77;14.60;;;;;;;;;;5028661;28;20404;-58
2023/10/10 08:47:50;;;;;;;21.02;14.93;;;;;;;;;;5028421;28;20402;-58
2023/10/10 08:50:16;;;;;;;20.83;14.43;;;;;;;;;;5028526;28;20399;-58
2023/10/10 08:52:41;;;;;;;19.38;13.82;;;;;;;;;;5028057;28;20399;-58
2023/10/10 08:55:10;;;;;;;19.00;14.17;;;;;;;;;;5027030;28;20407;-59
2023/10/10 08:57:38;;;;;;;18.17;13.65;;;;;;;;;;5031890;28;20398;-58
2023/10/10 09:00:06;;;;;;;18.23;13.52;;;;;;;;;;5032224;28;20472;-58
2023/10/10 09:02:33;;;;;;;17.10;13.02;;;;;;;;;;5031206;28;20399;-58
2023/10/10 09:04:58;;;;;;;16.10;12.63;;;;;;;;;;5032894;28;20394;-58
2023/10/10 09:07:30;;;;;;;16.80;12.30;;;;;;;;;;5032259;28;20458;-58
2023/10/10 09:10:04;;;;;;;17.20;12.83;;;;;;;;;;5032523;28;20894;-58
2023/10/10 09:12:32;;;;;;;18.08;12.77;;;;;;;;;;5032438;28;20383;-58
2023/10/10 09:14:58;;;;;;;18.38;12.57;;;;;;;;;;5025310;28;20934;-58
2023/10/10 09:17:32;;;;;;;16.73;12.20;;;;;;;;;;5021078;28;20401;-58
2023/10/10 09:19:57;;;;;;;18.60;12.93;;;;;;;;;;5012729;28;20412;-58
2023/10/10 09:22:34;;;;;;;17.37;12.53;;;;;;;;;;5012259;28;20405;-58
2023/10/10 09:25:17;;;;;;;16.02;11.80;;;;;;;;;;5016397;28;20488;-58
2023/10/10 09:27:57;;;;;;;16.27;11.57;;;;;;;;;;5011844;28;20409;-58
2023/10/10 09:30:30;;;;;;;17.63;11.85;;;;;;;;;;5011571;28;20399;-58
2023/10/10 09:33:00;;;;;;;16.98;12.45;;;;;;;;;;5011732;28;20401;-58
2023/10/10 09:35:28;;;;;;;15.80;12.27;;;;;;;;;;5012265;28;20899;-58
2023/10/10 09:37:54;;;;;;;17.67;11.50;;;;;;;;;;5012034;28;20918;-58
2023/10/10 09:40:19;;;;;;;16.55;11.90;;;;;;;;;;5012035;28;20455;-58
2023/10/10 09:45:35;;;;;;;16.60;11.27;;;;;;;;;;5009776;28;20397;-58
2023/10/10 09:48:27;;;;;;;15.40;10.93;;;;;;;;;;5011497;28;20953;-58
2023/10/10 09:51:08;;;;;;;17.40;11.55;;;;;;;;;;5011746;28;20404;-58
2023/10/10 09:53:34;;;;;;;16.65;11.25;;;;;;;;;;5015059;28;20403;-58
2023/10/10 09:56:01;;;;;;;16.55;11.43;;;;;;;;;;5014122;28;20400;-58
2023/10/10 09:58:27;;;;;;;17.13;11.80;;;;;;;;;;5018384;28;20867;-58
2023/10/10 10:00:52;;;;;;;15.90;11.20;;;;;;;;;;5018274;28;20447;-58
2023/10/10 10:09:17;;;;;;;16.63;11.80;;;;;;;;;;5014711;28;20404;-58
2023/10/10 10:11:49;;;;;;;18.17;11.65;;;;;;;;;;5017196;28;20424;-58
2023/10/10 10:14:17;;;;;;;17.08;11.10;;;;;;;;;;5003064;28;20401;-58
2023/10/10 10:16:47;;;;;;;18.20;11.68;;;;;;;;;;5012857;28;20944;-58
2023/10/10 10:19:15;;;;;;;18.73;11.63;;;;;;;;;;5020258;28;20922;-58
2023/10/10 10:21:57;;;;;;;16.67;11.55;;;;;;;;;;5017312;28;20507;-58
2023/10/10 10:24:29;;;;;;;15.60;11.55;;;;;;;;;;5021248;28;20399;-58
2023/10/10 10:29:55;;;;;;;17.30;11.10;;;;;;;;;;5014685;28;20432;-58
2023/10/10 10:32:26;;;;;;;17.52;11.75;;;;;;;;;;5015656;28;20401;-58
2023/10/10 10:34:56;;;;;;;14.65;11.60;;;;;;;;;;5022000;28;20415;-58
2023/10/10 10:37:23;;;;;;;16.48;12.25;;;;;;;;;;5014112;28;20408;-58
2023/10/10 10:40:23;;;;;;;16.48;11.48;;;;;;;;;;5018694;28;20470;-58
2023/10/10 10:42:46;;;;;;;15.70;10.95;;;;;;;;;;5011137;28;20444;-58
2023/10/10 10:45:24;;;;;;;15.60;11.50;;;;;;;;;;5013399;28;20423;-58
2023/10/10 10:47:54;;;;;;;16.03;11.50;;;;;;;;;;5021336;28;20440;-58
2023/10/10 10:50:29;;;;;;;16.75;11.50;;;;;;;;;;5020754;28;20430;-58
2023/10/10 10:52:58;;;;;;;17.15;11.85;;;;;;;;;;5016659;28;20907;-58
2023/10/10 10:55:27;;;;;;;17.63;11.80;;;;;;;;;;5013250;28;20408;-58
2023/10/10 10:58:06;;;;;;;15.88;10.93;;;;;;;;;;5022199;28;20490;-58
2023/10/10 11:03:23;;;;;;;14.93;11.35;;;;;;;;;;5014696;28;20411;-58
2023/10/10 11:05:53;;;;;;;17.05;10.60;;;;;;;;;;5013661;28;20427;-58
2023/10/10 11:08:45;;;;;;;15.38;10.52;;;;;;;;;;5013831;28;20905;-58
2023/10/10 11:11:23;;;;;;;16.80;11.07;;;;;;;;;;5011700;28;20401;-58
2023/10/10 11:13:49;;;;;;;17.35;11.32;;;;;;;;;;5015611;28;20501;-59
2023/10/10 11:16:15;;;;;;;17.98;11.27;;;;;;;;;;5020462;28;20853;-58
2023/10/10 11:18:41;;;;;;;19.20;11.40;;;;;;;;;;5019322;28;20410;-59
2023/10/10 11:21:11;;;;;;;16.55;11.65;;;;;;;;;;5014268;28;20417;-58
2023/10/10 11:23:41;;;;;;;18.35;11.30;;;;;;;;;;5015453;28;20399;-58
2023/10/10 11:26:08;;;;;;;16.98;11.40;;;;;;;;;;5017362;28;20423;-58
2023/10/10 11:28:47;;;;;;;14.95;10.98;;;;;;;;;;5013546;28;20401;-58
2023/10/10 11:31:14;;;;;;;15.05;10.68;;;;;;;;;;5014152;28;20523;-58
2023/10/10 11:33:48;;;;;;;18.17;11.53;;;;;;;;;;5020176;28;20776;-58
2023/10/10 11:36:20;;;;;;;16.43;11.00;;;;;;;;;;5013322;28;20912;-58
2023/10/10 11:38:55;;;;;;;15.65;10.27;;;;;;;;;;5013897;28;20404;-58
2023/10/10 11:41:29;;;;;;;17.30;10.70;;;;;;;;;;5014465;28;20424;-58
2023/10/10 11:43:56;;;;;;;15.90;11.23;;;;;;;;;;5020488;28;20410;-58
2023/10/10 11:46:22;;;;;;;18.27;11.35;;;;;;;;;;5021360;28;20405;-58
2023/10/10 11:48:47;;;;;;;15.15;9.98;;;;;;;;;;5018118;28;20816;-58
2023/10/10 11:51:14;;;;;;;16.70;11.27;;;;;;;;;;5017587;28;20553;-58
2023/10/10 11:53:39;;;;;;;17.90;10.48;;;;;;;;;;5020378;28;20778;-58
2023/10/10 11:56:11;;;;;;;16.40;10.70;;;;;;;;;;5019798;28;20414;-58
2023/10/10 11:58:36;;;;;;;17.10;10.52;;;;;;;;;;5013066;28;20404;-58
2023/10/10 12:01:10;;;;;;;16.63;10.53;;;;;;;;;;5014498;28;21222;-59
2023/10/10 12:03:41;;;;;;;16.30;10.33;;;;;;;;;;5021680;28;20772;-58
2023/10/10 12:06:14;;;;;;;16.02;10.52;;;;;;;;;;5017869;28;20429;-58
2023/10/10 12:08:44;;;;;;;16.60;10.27;;;;;;;;;;5016933;28;20522;-58
2023/10/10 12:11:19;;;;;;;16.63;10.10;;;;;;;;;;5021286;28;20407;-58
2023/10/10 12:13:45;;;;;;;17.02;9.68;;;;;;;;;;5012597;28;20415;-58
2023/10/10 12:16:10;;;;;;;15.60;9.30;;;;;;;;;;5015938;28;20420;-58
2023/10/10 12:18:43;;;;;;;14.70;9.63;;;;;;;;;;5019609;28;20728;-58
2023/10/10 12:21:10;;;;;;;15.05;9.38;;;;;;;;;;5011955;28;20455;-58
2023/10/10 12:23:35;;;;;;;14.05;9.00;;;;;;;;;;5018139;28;20395;-58
2023/10/10 12:26:01;;;;;;;14.60;9.97;;;;;;;;;;5014312;28;20405;-59
2023/10/10 12:28:26;;;;;;;14.90;9.20;;;;;;;;;;5020759;28;20399;-58
2023/10/10 12:30:52;;;;;;;16.40;9.67;;;;;;;;;;5012850;28;20726;-58
2023/10/10 12:33:19;;;;;;;18.17;10.03;;;;;;;;;;5017422;28;20934;-58
2023/10/10 12:35:47;;;;;;;13.43;8.83;;;;;;;;;;5017380;28;20407;-58
2023/10/10 12:38:15;;;;;;;14.83;9.37;;;;;;;;;;5023729;28;20414;-58
2023/10/10 12:40:43;;;;;;;14.68;8.93;;;;;;;;;;5017314;28;20412;-58
2023/10/10 12:43:11;;;;;;;15.05;9.75;;;;;;;;;;5017191;28;20469;-58
2023/10/10 12:45:36;;;;;;;16.90;9.70;;;;;;;;;;5024762;28;20804;-58
2023/10/10 12:48:02;;;;;;;15.80;9.47;;;;;;;;;;5015822;28;20467;-58
2023/10/10 12:50:29;;;;;;;16.13;9.57;;;;;;;;;;5018712;28;20413;-58
2023/10/10 12:53:07;;;;;;;18.50;9.63;;;;;;;;;;5023404;28;20414;-58
2023/10/10 12:55:34;;;;;;;16.90;8.85;;;;;;;;;;5024056;28;20737;-58
2023/10/10 12:58:04;;;;;;;15.57;9.57;;;;;;;;;;5022551;28;20422;-58
2023/10/10 13:00:33;;;;;;;14.90;8.85;;;;;;;;;;5019447;28;20399;-58
2023/10/10 13:02:58;;;;;;;16.10;9.20;;;;;;;;;;5016202;28;20432;-58
2023/10/10 13:05:27;;;;;;;14.27;9.20;;;;;;;;;;5023231;28;20429;-58
2023/10/10 13:07:55;;;;;;;15.07;9.43;;;;;;;;;;5018124;28;20765;-58
2023/10/10 13:10:26;;;;;;;12.68;8.70;;;;;;;;;;5017213;28;21645;-58
2023/10/10 13:12:51;;;;;;;12.75;8.35;;;;;;;;;;5032594;28;20893;-58
2023/10/10 13:15:18;;;;;;;13.85;9.13;;;;;;;;;;5023613;28;20435;-58
2023/10/10 13:17:53;;;;;;;12.82;8.57;;;;;;;;;;5021242;28;20883;-58
2023/10/10 13:20:18;;;;;;;13.77;8.70;;;;;;;;;;5019394;28;20432;-58
2023/10/10 13:22:43;;;;;;;16.45;9.18;;;;;;;;;;5021723;28;20405;-58
2023/10/10 13:25:10;;;;;;;14.93;9.40;;;;;;;;;;5015608;28;20449;-58
2023/10/10 13:27:35;;;;;;;14.68;9.43;;;;;;;;;;5022088;28;20545;-58
2023/10/10 13:30:00;;;;;;;17.13;9.13;;;;;;;;;;5019056;28;20881;-59
2023/10/10 13:32:26;;;;;;;15.90;8.90;;;;;;;;;;5015628;28;20561;-58
2023/10/10 13:34:52;;;;;;;14.77;8.20;;;;;;;;;;5005120;28;20415;-58
2023/10/10 13:37:18;;;;;;;14.45;8.57;;;;;;;;;;5000641;28;20417;-58
2023/10/10 13:39:43;;;;;;;14.90;9.40;;;;;;;;;;5002906;28;21016;-58
2023/10/10 13:42:09;;;;;;;17.23;9.70;;;;;;;;;;5007407;28;20447;-58
2023/10/10 13:44:34;;;;;;;13.25;8.10;;;;;;;;;;5008461;28;20411;-58
2023/10/10 13:47:00;;;;;;;14.57;8.90;;;;;;;;;;5008700;28;20467;-58
2023/10/10 13:49:25;;;;;;;13.60;8.27;;;;;;;;;;5008272;28;20951;-58
2023/10/10 13:51:52;;;;;;;13.30;7.90;;;;;;;;;;5008161;28;20408;-58
2023/10/10 13:54:19;;;;;;;15.88;8.48;;;;;;;;;;5007833;28;20415;-58
2023/10/10 13:56:44;;;;;;;14.15;8.00;;;;;;;;;;5000111;28;20441;-58
2023/10/10 13:59:11;;;;;;;13.27;7.40;;;;;;;;;;4999631;28;20412;-58
2023/10/10 14:01:36;;;;;;;15.68;8.18;;;;;;;;;;5002972;28;20433;-58
2023/10/10 14:04:24;;;;;;;12.30;7.73;;;;;;;;;;5012540;28;20756;-58
2023/10/10 14:06:50;;;;;;;14.23;7.30;;;;;;;;;;5013663;28;20404;-59
2023/10/10 14:09:23;;;;;;;14.20;7.35;;;;;;;;;;5006877;28;20941;-58
2023/10/10 14:11:49;;;;;;;13.45;7.07;;;;;;;;;;5007823;28;20419;-58
2023/10/10 14:14:14;;;;;;;13.18;7.20;;;;;;;;;;5007782;28;20409;-58
2023/10/10 14:16:40;;;;;;;12.77;7.13;;;;;;;;;;5005507;28;20473;-59
2023/10/10 14:19:05;;;;;;;13.60;8.00;;;;;;;;;;5000505;28;21160;-57
2023/10/10 14:21:30;;;;;;;11.07;6.77;;;;;;;;;;4999952;28;20407;-58
2023/10/10 14:24:04;;;;;;;12.43;7.03;;;;;;;;;;5000497;28;20938;-58
2023/10/10 14:26:33;;;;;;;12.30;6.83;;;;;;;;;;5005595;28;20998;-58
2023/10/10 14:29:04;;;;;;;13.70;6.57;;;;;;;;;;5007934;28;20443;-58
2023/10/10 14:31:31;;;;;;;12.80;6.80;;;;;;;;;;5006262;28;20407;-58
2023/10/10 14:33:59;;;;;;;12.35;6.43;;;;;;;;;;5006694;28;20858;-58
2023/10/10 14:36:26;;;;;;;12.68;6.50;;;;;;;;;;5006554;28;20401;-58
2023/10/10 14:38:52;;;;;;;13.30;6.78;;;;;;;;;;5010988;28;20407;-58
2023/10/10 14:41:19;;;;;;;12.17;6.13;;;;;;;;;;5001654;28;20411;-58
2023/10/10 14:43:51;;;;;;;14.30;7.63;;;;;;;;;;4999293;28;20409;-58
2023/10/10 14:46:21;;;;;;;12.82;6.65;;;;;;;;;;5001546;28;20931;-58
2023/10/10 14:48:47;;;;;;;13.93;7.25;;;;;;;;;;5009771;28;20412;-58
2023/10/10 14:51:17;;;;;;;11.45;6.78;;;;;;;;;;5006361;28;21034;-58
2023/10/10 14:53:42;;;;;;;11.30;6.90;;;;;;;;;;5006803;28;20409;-58
2023/10/10 14:56:08;;;;;;;12.77;6.90;;;;;;;;;;5005843;28;20411;-58
2023/10/10 14:58:33;;;;;;;11.88;6.63;;;;;;;;;;5006600;28;20459;-58
2023/10/10 15:00:58;;;;;;;14.43;7.57;;;;;;;;;;5006842;28;20412;-58
2023/10/10 15:03:25;;;;;;;12.70;7.40;;;;;;;;;;5004264;28;20415;-58
2023/10/10 15:05:51;;;;;;;13.10;7.07;;;;;;;;;;4998951;28;20413;-58
2023/10/10 15:08:16;;;;;;;14.77;7.63;;;;;;;;;;4997771;28;20812;-58
2023/10/10 15:10:41;;;;;;;14.65;7.47;;;;;;;;;;5002464;28;20409;-58
2023/10/10 15:13:08;;;;;;;15.00;6.97;;;;;;;;;;5012622;28;20405;-58
2023/10/10 15:15:34;;;;;;;12.80;7.40;;;;;;;;;;5005783;28;20527;-58
2023/10/10 15:18:00;;;;;;;13.60;8.02;;;;;;;;;;5006808;28;20435;-58
2023/10/10 15:20:27;;;;;;;12.65;7.40;;;;;;;;;;5009728;28;20814;-58
2023/10/10 15:22:52;;;;;;;12.38;7.45;;;;;;;;;;5006607;28;20834;-58
2023/10/10 15:25:19;;;;;;;12.60;6.93;;;;;;;;;;5004557;28;20459;-58
2023/10/10 15:27:44;;;;;;;12.85;7.10;;;;;;;;;;4996952;28;20407;-58
2023/10/10 15:30:09;;;;;;;14.83;7.10;;;;;;;;;;4997460;28;20408;-58
2023/10/10 15:32:44;;;;;;;14.47;6.77;;;;;;;;;;4999635;28;20409;-58
2023/10/10 15:35:10;;;;;;;13.32;6.38;;;;;;;;;;5006101;28;20800;-58
2023/10/10 15:37:42;;;;;;;13.13;5.93;;;;;;;;;;5010191;28;20432;-58
2023/10/10 15:40:08;;;;;;;14.57;6.37;;;;;;;;;;5005368;28;20415;-58
2023/10/10 15:42:38;;;;;;;10.75;5.38;;;;;;;;;;5005832;28;20419;-58
2023/10/10 15:45:04;;;;;;;16.07;5.50;;;;;;;;;;5007192;28;20789;-58
2023/10/10 15:47:30;;;;;;;10.10;5.30;;;;;;;;;;5010908;28;20425;-58
2023/10/10 15:50:00;;;;;;;9.47;5.10;;;;;;;;;;4998992;28;20532;-58
2023/10/10 15:52:25;;;;;;;10.18;5.00;;;;;;;;;;4998562;28;20409;-58
2023/10/10 15:54:50;;;;;;;9.10;4.90;;;;;;;;;;4998287;28;20415;-58
2023/10/10 15:57:15;;;;;;;12.23;4.97;;;;;;;;;;5004148;28;20517;-58
2023/10/10 15:59:41;;;;;;;8.50;4.70;;;;;;;;;;5006020;28;20500;-58
2023/10/10 16:02:09;;;;;;;9.00;4.63;;;;;;;;;;5005463;28;20419;-58
2023/10/10 16:04:34;;;;;;;9.25;4.47;;;;;;;;;;5006219;28;20440;-58
2023/10/10 16:07:01;;;;;;;9.97;4.67;;;;;;;;;;5009798;28;20504;-57
2023/10/10 16:09:32;;;;;;;11.98;4.80;;;;;;;;;;5010701;28;20450;-58
2023/10/10 16:11:57;;;;;;;9.80;4.38;;;;;;;;;;5005024;28;20413;-58
2023/10/10 16:14:23;;;;;;;9.67;4.60;;;;;;;;;;5001439;28;20403;-58
2023/10/10 16:16:49;;;;;;;9.67;4.40;;;;;;;;;;5003105;28;20412;-58
2023/10/10 16:19:22;;;;;;;9.75;4.38;;;;;;;;;;5005473;28;20418;-58
2023/10/10 16:21:48;;;;;;;10.50;4.60;;;;;;;;;;5008807;28;20560;-58
2023/10/10 16:24:14;;;;;;;11.17;4.23;;;;;;;;;;5009125;28;21066;-58
2023/10/10 16:26:40;;;;;;;10.10;4.27;;;;;;;;;;5009424;28;20397;-58
2023/10/10 16:29:06;;;;;;;8.60;4.55;;;;;;;;;;5008912;28;20444;-58
2023/10/10 16:31:32;;;;;;;9.10;4.20;;;;;;;;;;5009597;28;20407;-58
2023/10/10 16:33:57;;;;;;;8.95;4.50;;;;;;;;;;5005281;28;21061;-58
2023/10/10 16:36:23;;;;;;;10.30;4.87;;;;;;;;;;5001423;28;20413;-58
2023/10/10 16:38:55;;;;;;;11.50;4.57;;;;;;;;;;5002298;28;20456;-58
2023/10/10 16:41:22;;;;;;;11.57;4.85;;;;;;;;;;5010096;28;20395;-58
2023/10/10 16:43:47;;;;;;;8.57;4.63;;;;;;;;;;5008452;28;20418;-58
2023/10/10 16:46:13;;;;;;;10.70;4.97;;;;;;;;;;5008654;28;20411;-58
2023/10/10 16:48:40;;;;;;;9.80;4.60;;;;;;;;;;5008738;28;20503;-58
2023/10/10 16:51:08;;;;;;;9.15;4.50;;;;;;;;;;5010003;28;20409;-59
2023/10/10 16:53:33;;;;;;;9.50;4.70;;;;;;;;;;5011946;28;20482;-58
2023/10/10 16:56:06;;;;;;;10.35;5.00;;;;;;;;;;5007633;28;20408;-58
2023/10/10 16:58:31;;;;;;;10.10;5.03;;;;;;;;;;4999946;28;20958;-58
2023/10/10 17:01:00;;;;;;;11.43;5.13;;;;;;;;;;5002495;28;20408;-58
2023/10/10 17:03:25;;;;;;;8.85;4.80;;;;;;;;;;5004099;28;20413;-58